Time;durP1;ratioP1;P1;durP2;ratioP2;P2;SDS_P1;SDS_P2;PMS_P1;PMS_P2;Temp;Humidity;BMP_temperature;BMP_pressure;BME280_temperature;BME280_humidity;BME280_pressure;Samples;Min_cycle;Max_cycle;Signal;HPM_P1;HPM_P2
2022/02/11 00:02:17;;;;;;;9.73;3.42;;;6.10;80.60;;;;;;5107113;28;20509;-64
2022/02/11 00:07:29;;;;;;;8.15;3.05;;;6.10;80.10;;;;;;5077039;28;20128;-64
2022/02/11 00:09:55;;;;;;;9.30;2.85;;;6.10;80.20;;;;;;5094002;28;20111;-64
2022/02/11 00:12:21;;;;;;;12.45;3.25;;;6.00;80.30;;;;;;5095079;28;20025;-64
2022/02/11 00:15:01;;;;;;;9.27;2.83;;;6.00;80.50;;;;;;5089220;28;20032;-64
2022/02/11 00:17:29;;;;;;;9.60;2.92;;;6.00;80.50;;;;;;5074164;28;20054;-66
2022/02/11 00:19:55;;;;;;;8.80;3.13;;;6.00;80.40;;;;;;5106827;28;20016;-66
2022/02/11 00:22:20;;;;;;;7.85;2.72;;;6.00;80.50;;;;;;5103903;28;20479;-66
2022/02/11 00:24:46;;;;;;;12.20;4.00;;;6.00;80.50;;;;;;5104218;28;20031;-67
2022/02/11 00:32:50;;;;;;;11.23;3.13;;;5.90;80.40;;;;;;5090881;28;20035;-66
2022/02/11 00:36:02;;;;;;;9.88;2.92;;;5.90;80.60;;;;;;5072830;28;20543;-66
2022/02/11 00:38:12;;;;;;;8.75;2.80;;;5.90;80.70;;;;;;5085537;28;20070;-66
2022/02/11 01:02:56;;;;;;;8.57;2.65;;;5.80;81.20;;;;;;5078245;28;20047;-66
2022/02/11 01:05:22;;;;;;;8.57;2.60;;;5.80;81.20;;;;;;5095647;28;20062;-66
2022/02/11 01:07:49;;;;;;;10.45;2.83;;;5.70;81.30;;;;;;5111179;28;20353;-66
2022/02/11 01:10:16;;;;;;;9.02;2.22;;;5.80;81.40;;;;;;5096461;28;20035;-66
2022/02/11 01:12:42;;;;;;;9.68;2.63;;;5.80;81.30;;;;;;5103026;28;20040;-66
2022/02/11 01:15:09;;;;;;;9.70;2.30;;;5.70;81.30;;;;;;5092275;28;20031;-66
2022/02/11 01:17:43;;;;;;;11.27;2.65;;;5.70;81.30;;;;;;5095770;28;20036;-67
2022/02/11 01:20:16;;;;;;;8.35;2.40;;;5.80;81.30;;;;;;5093074;28;20024;-65
2022/02/11 01:23:07;;;;;;;8.30;2.40;;;5.70;81.30;;;;;;5103352;28;20115;-65
2022/02/11 01:31:06;;;;;;;10.30;2.53;;;5.70;81.10;;;;;;5090891;28;20591;-64
2022/02/11 01:55:14;;;;;;;12.35;2.40;;;5.60;81.00;;;;;;5097089;28;20051;-64
2022/02/11 02:06:22;;;;;;;7.10;2.42;;;5.50;80.90;;;;;;5107106;28;20089;-64
2022/02/11 02:22:21;;;;;;;12.55;2.33;;;5.60;81.40;;;;;;5089555;28;20062;-64
2022/02/11 02:24:52;;;;;;;10.75;2.80;;;5.60;81.70;;;;;;5070861;28;20037;-64
2022/02/11 02:36:36;;;;;;;11.27;2.90;;;5.50;83.00;;;;;;5088079;28;20394;-65
2022/02/11 02:57:07;;;;;;;9.52;2.33;;;5.40;84.40;;;;;;5091433;28;20046;-64
2022/02/11 03:14:28;;;;;;;10.43;2.33;;;5.40;84.80;;;;;;5109544;28;20507;-64
2022/02/11 03:34:57;;;;;;;15.82;2.88;;;5.50;86.40;;;;;;5088210;28;20036;-64
2022/02/11 04:55:35;;;;;;;12.73;2.28;;;5.90;85.50;;;;;;5104539;28;20039;-67
2022/02/11 05:00:45;;;;;;;15.23;2.60;;;5.90;85.40;;;;;;5105970;28;20038;-67
2022/02/11 05:03:11;;;;;;;11.70;2.40;;;5.90;85.30;;;;;;5109415;28;20470;-66
2022/02/11 05:05:49;;;;;;;21.02;2.50;;;5.90;85.30;;;;;;5105544;28;20020;-66
2022/02/11 05:08:18;;;;;;;15.60;2.55;;;5.90;85.20;;;;;;5091939;28;20528;-67
2022/02/11 05:10:44;;;;;;;9.93;2.50;;;5.90;85.10;;;;;;5092355;28;20052;-66
2022/02/11 05:13:10;;;;;;;16.23;2.67;;;5.90;84.90;;;;;;5094106;28;20028;-66
2022/02/11 05:15:37;;;;;;;14.45;2.50;;;5.90;84.40;;;;;;5111214;28;20394;-66
2022/02/11 05:18:03;;;;;;;11.93;2.08;;;5.90;84.20;;;;;;5105384;28;20038;-67
2022/02/11 05:20:29;;;;;;;14.18;2.20;;;5.90;83.80;;;;;;5106504;28;20393;-66
2022/02/11 05:22:54;;;;;;;7.53;1.92;;;5.90;83.70;;;;;;5105652;28;20036;-67
2022/02/11 05:25:20;;;;;;;9.60;2.03;;;5.90;83.70;;;;;;5110391;28;20066;-66
2022/02/11 05:27:46;;;;;;;15.85;2.50;;;5.90;83.60;;;;;;5094954;28;20024;-65
2022/02/11 05:30:12;;;;;;;16.23;2.25;;;5.90;83.60;;;;;;5088756;28;20032;-67
2022/02/11 05:32:38;;;;;;;11.98;1.92;;;5.90;83.40;;;;;;5088615;28;20506;-67
2022/02/11 05:35:04;;;;;;;12.90;2.08;;;5.80;83.50;;;;;;5089389;28;20036;-66
2022/02/11 05:37:30;;;;;;;12.32;2.05;;;5.80;83.40;;;;;;5094835;28;20059;-66
2022/02/11 05:39:56;;;;;;;11.23;2.28;;;5.90;83.40;;;;;;5090193;28;20176;-66
2022/02/11 05:42:22;;;;;;;13.77;2.40;;;5.90;83.30;;;;;;5089990;28;20621;-66
2022/02/11 05:44:47;;;;;;;12.90;2.30;;;5.90;83.30;;;;;;5091381;28;20055;-66
2022/02/11 05:47:13;;;;;;;11.55;1.80;;;5.90;83.30;;;;;;5096133;28;20024;-66
2022/02/11 05:49:39;;;;;;;9.82;1.88;;;5.90;83.40;;;;;;5090028;28;20039;-66
2022/02/11 05:52:05;;;;;;;10.23;2.03;;;5.90;83.50;;;;;;5086462;28;20016;-66
2022/02/11 05:54:30;;;;;;;9.68;2.00;;;5.90;83.50;;;;;;5091743;28;20048;-67
2022/02/11 05:56:56;;;;;;;14.63;3.80;;;5.90;83.50;;;;;;5087623;28;20039;-66
2022/02/11 05:59:22;;;;;;;13.20;3.25;;;5.80;83.90;;;;;;5090003;28;20028;-66
2022/02/11 06:01:48;;;;;;;16.98;2.70;;;5.80;83.40;;;;;;5095447;28;20138;-66
2022/02/11 06:04:13;;;;;;;17.70;2.42;;;5.80;83.50;;;;;;5097841;28;20054;-66
2022/02/11 06:06:39;;;;;;;10.25;2.25;;;5.80;83.50;;;;;;5072397;28;20032;-66
2022/02/11 06:09:04;;;;;;;11.13;2.10;;;5.80;83.40;;;;;;5088449;28;20524;-66
2022/02/11 06:11:30;;;;;;;10.77;2.42;;;5.80;83.50;;;;;;5076239;28;20111;-67
2022/02/11 06:13:56;;;;;;;11.60;2.10;;;5.70;83.50;;;;;;5072656;28;20112;-67
2022/02/11 06:16:22;;;;;;;16.02;2.58;;;5.80;83.20;;;;;;5076521;28;20093;-66
2022/02/11 06:18:48;;;;;;;20.63;3.20;;;5.80;82.90;;;;;;5089776;28;20032;-66
2022/02/11 06:21:14;;;;;;;16.83;2.80;;;5.70;82.70;;;;;;5091020;28;20036;-66
2022/02/11 06:23:40;;;;;;;12.55;2.00;;;5.80;82.70;;;;;;5101403;28;20484;-66
2022/02/11 06:26:06;;;;;;;15.20;2.80;;;5.80;82.60;;;;;;5093869;28;20032;-66
2022/02/11 06:28:31;;;;;;;10.80;2.42;;;5.80;82.40;;;;;;5102099;28;20074;-66
2022/02/11 06:30:57;;;;;;;14.52;2.58;;;5.80;82.10;;;;;;5091220;28;20074;-67
2022/02/11 06:33:23;;;;;;;10.68;2.10;;;5.80;82.50;;;;;;5091002;28;20078;-66
2022/02/11 06:35:49;;;;;;;12.18;1.75;;;5.80;81.60;;;;;;5100038;28;20034;-66
2022/02/11 06:38:14;;;;;;;13.05;1.90;;;5.80;80.80;;;;;;5095804;28;20029;-66
2022/02/11 06:40:40;;;;;;;9.88;1.77;;;5.70;80.30;;;;;;5100425;28;20051;-66
2022/02/11 06:43:06;;;;;;;10.45;2.15;;;5.70;80.20;;;;;;5090814;28;20462;-66
2022/02/11 06:45:33;;;;;;;6.88;1.42;;;5.70;80.10;;;;;;5091623;28;20524;-66
2022/02/11 06:47:58;;;;;;;10.65;2.00;;;5.70;80.30;;;;;;5090889;28;20036;-66
2022/02/11 06:50:24;;;;;;;11.88;1.98;;;5.60;80.20;;;;;;5095011;28;20030;-67
2022/02/11 06:52:50;;;;;;;11.50;2.10;;;5.60;80.40;;;;;;5099151;28;20028;-66
2022/02/11 06:55:16;;;;;;;10.27;2.40;;;5.60;80.50;;;;;;5091429;28;20024;-67
2022/02/11 06:57:45;;;;;;;12.75;2.00;;;5.60;80.60;;;;;;5095893;28;20028;-67
2022/02/11 07:00:12;;;;;;;10.57;1.90;;;5.50;80.80;;;;;;5089683;28;20111;-66
2022/02/11 07:02:38;;;;;;;13.23;2.40;;;5.50;81.00;;;;;;5089765;28;20157;-66
2022/02/11 07:05:04;;;;;;;13.27;2.45;;;5.50;81.10;;;;;;5091663;28;20044;-66
2022/02/11 07:07:30;;;;;;;12.70;2.53;;;5.50;81.30;;;;;;5105924;28;20028;-67
2022/02/11 07:09:56;;;;;;;17.40;2.75;;;5.50;81.30;;;;;;5098254;28;20494;-67
2022/02/11 07:12:22;;;;;;;11.13;2.03;;;5.50;81.30;;;;;;5099468;28;20425;-66
2022/02/11 07:14:47;;;;;;;12.95;2.67;;;5.50;81.20;;;;;;5090675;28;20028;-67
2022/02/11 07:17:13;;;;;;;14.20;1.95;;;5.50;81.30;;;;;;5089449;28;20039;-67
2022/02/11 07:19:39;;;;;;;14.25;3.38;;;5.50;81.40;;;;;;5089114;28;20055;-67
2022/02/11 07:22:05;;;;;;;10.27;2.03;;;5.40;81.50;;;;;;5105617;28;20118;-67
2022/02/11 07:24:31;;;;;;;14.55;2.90;;;5.40;81.60;;;;;;5101992;28;20027;-66
2022/02/11 07:26:57;;;;;;;14.35;2.30;;;5.50;81.80;;;;;;5103605;28;20070;-67
2022/02/11 07:29:23;;;;;;;11.73;3.03;;;5.50;81.90;;;;;;5094284;28;20089;-67
2022/02/11 07:31:49;;;;;;;12.77;2.28;;;5.50;81.90;;;;;;5094384;28;20085;-67
2022/02/11 07:34:15;;;;;;;12.63;2.17;;;5.50;81.80;;;;;;5102095;28;20406;-67
2022/02/11 07:36:41;;;;;;;14.60;2.40;;;5.50;81.70;;;;;;5109876;28;20501;-67
2022/02/11 07:39:07;;;;;;;19.90;2.83;;;5.50;81.70;;;;;;5102444;28;20115;-66
2022/02/11 07:41:32;;;;;;;11.48;2.65;;;5.50;81.70;;;;;;5082553;28;20262;-66
2022/02/11 07:43:59;;;;;;;13.65;2.28;;;5.50;81.60;;;;;;5082082;28;20052;-66
2022/02/11 07:46:24;;;;;;;14.73;3.10;;;5.50;81.50;;;;;;5085632;28;20046;-67
2022/02/11 07:48:50;;;;;;;11.65;2.03;;;5.50;81.40;;;;;;5083199;28;20576;-64
2022/02/11 07:51:15;;;;;;;13.05;2.83;;;5.50;81.40;;;;;;5092110;28;20067;-64
2022/02/11 07:53:43;;;;;;;15.43;2.38;;;5.40;81.10;;;;;;5081295;28;20032;-64
2022/02/11 07:56:09;;;;;;;15.70;4.07;;;5.50;81.00;;;;;;5073226;28;20835;-64
2022/02/11 07:58:34;;;;;;;16.35;2.30;;;5.50;81.10;;;;;;5073512;28;20047;-63
2022/02/11 08:01:00;;;;;;;11.23;3.40;;;5.50;80.70;;;;;;5081262;28;20491;-63
2022/02/11 08:03:27;;;;;;;15.57;3.00;;;5.50;80.50;;;;;;5079342;28;20235;-63
2022/02/11 08:05:53;;;;;;;15.48;2.80;;;5.50;80.20;;;;;;5091621;28;19990;-63
2022/02/11 08:08:23;;;;;;;14.80;2.42;;;5.50;80.20;;;;;;5084367;28;20178;-63
2022/02/11 08:10:52;;;;;;;16.88;2.33;;;5.60;80.20;;;;;;5088430;28;20039;-63
2022/02/11 08:13:18;;;;;;;18.33;3.70;;;5.60;79.80;;;;;;5080780;28;20597;-63
2022/02/11 08:15:44;;;;;;;15.00;2.53;;;5.60;79.60;;;;;;5086065;28;20035;-67
2022/02/11 08:18:09;;;;;;;17.30;3.58;;;5.70;79.70;;;;;;5084470;28;20107;-67
2022/02/11 08:20:35;;;;;;;12.52;2.90;;;5.70;79.60;;;;;;5078087;28;20033;-67
2022/02/11 08:23:01;;;;;;;16.23;2.80;;;5.80;79.50;;;;;;5087776;28;20039;-67
2022/02/11 08:25:26;;;;;;;15.50;2.60;;;5.80;79.30;;;;;;5083005;28;20025;-67
2022/02/11 08:27:54;;;;;;;18.35;2.95;;;5.90;79.30;;;;;;5089203;28;20062;-68
2022/02/11 08:30:20;;;;;;;16.08;2.53;;;5.90;78.60;;;;;;5074087;28;20035;-67
2022/02/11 08:32:46;;;;;;;20.92;2.78;;;5.90;78.60;;;;;;5091993;28;20073;-67
2022/02/11 08:35:12;;;;;;;12.02;3.25;;;5.90;78.60;;;;;;5087959;28;20065;-67
2022/02/11 08:37:38;;;;;;;17.58;2.95;;;5.90;78.50;;;;;;5082702;28;20032;-67
2022/02/11 08:40:05;;;;;;;15.45;3.15;;;5.90;78.30;;;;;;5079199;28;20055;-63
2022/02/11 08:42:30;;;;;;;15.93;2.35;;;6.00;78.20;;;;;;5083325;28;20045;-63
2022/02/11 08:44:56;;;;;;;14.93;3.30;;;6.00;78.00;;;;;;5083747;28;20043;-64
2022/02/11 08:47:25;;;;;;;20.88;3.25;;;6.10;78.20;;;;;;5083726;28;20054;-64
2022/02/11 08:49:50;;;;;;;17.15;3.28;;;6.10;78.10;;;;;;5080573;28;20025;-63
2022/02/11 08:52:16;;;;;;;18.45;2.75;;;6.20;78.30;;;;;;5075585;28;21404;-63
2022/02/11 08:54:41;;;;;;;19.40;3.17;;;6.30;78.30;;;;;;5083378;28;20333;-64
2022/02/11 08:57:07;;;;;;;20.02;3.08;;;6.40;78.10;;;;;;5088672;28;20059;-63
2022/02/11 08:59:33;;;;;;;18.38;3.25;;;6.40;77.40;;;;;;5079585;28;20064;-63
2022/02/11 09:01:59;;;;;;;16.98;3.35;;;6.50;76.90;;;;;;5087186;28;20074;-64
2022/02/11 09:04:24;;;;;;;34.42;4.45;;;6.50;77.10;;;;;;5082807;28;20563;-64
2022/02/11 09:06:50;;;;;;;15.25;3.58;;;6.60;76.80;;;;;;5089815;28;20548;-64
2022/02/11 09:09:16;;;;;;;17.58;3.38;;;6.70;76.60;;;;;;5081312;28;20036;-64
2022/02/11 09:11:42;;;;;;;19.63;3.78;;;6.80;76.60;;;;;;5086552;28;20036;-64
2022/02/11 09:14:08;;;;;;;20.55;3.05;;;6.80;76.40;;;;;;5082932;28;20386;-64
2022/02/11 09:16:35;;;;;;;15.23;3.13;;;6.90;76.60;;;;;;5080275;28;20028;-64
2022/02/11 09:19:01;;;;;;;16.13;3.33;;;6.90;76.60;;;;;;5074457;28;20036;-64
2022/02/11 09:21:27;;;;;;;15.20;3.30;;;7.00;76.30;;;;;;5074704;28;20108;-65
2022/02/11 09:23:53;;;;;;;24.65;3.97;;;7.10;76.50;;;;;;5077379;28;20040;-64
2022/02/11 09:26:19;;;;;;;19.38;3.20;;;7.10;75.90;;;;;;5083867;28;20035;-68
2022/02/11 09:28:45;;;;;;;18.92;3.40;;;7.20;75.60;;;;;;5071601;28;20032;-68
2022/02/11 09:31:11;;;;;;;21.73;4.30;;;7.20;75.40;;;;;;5081374;28;20036;-68
2022/02/11 09:34:04;;;;;;;15.52;3.50;;;7.30;74.60;;;;;;5103205;27;20352;-63
2022/02/11 09:36:34;;;;;;;15.68;3.17;;;7.40;73.40;;;;;;5092733;28;20020;-63
2022/02/11 09:39:05;;;;;;;18.50;2.85;;;7.40;72.90;;;;;;5080404;28;20024;-63
2022/02/11 09:41:31;;;;;;;20.85;3.40;;;7.40;72.30;;;;;;5084897;28;20479;-63
2022/02/11 09:44:00;;;;;;;14.57;2.65;;;7.50;71.20;;;;;;5074809;28;20470;-63
2022/02/11 09:46:29;;;;;;;11.95;2.25;;;7.50;68.90;;;;;;5082992;28;20356;-63
2022/02/11 09:48:54;;;;;;;16.10;2.47;;;7.60;67.10;;;;;;5082416;28;20127;-64
2022/02/11 09:51:20;;;;;;;11.07;2.53;;;7.70;67.10;;;;;;5079913;28;20115;-63
2022/02/11 09:53:46;;;;;;;15.45;1.90;;;7.80;66.20;;;;;;5085526;28;20103;-63
2022/02/11 09:56:11;;;;;;;14.02;2.50;;;7.80;63.00;;;;;;5085707;28;20028;-63
2022/02/11 09:58:37;;;;;;;13.32;2.50;;;7.80;61.90;;;;;;5086900;28;20108;-63
2022/02/11 10:01:03;;;;;;;12.32;2.55;;;7.90;60.40;;;;;;5089520;28;20032;-64
2022/02/11 10:03:30;;;;;;;17.10;2.53;;;8.00;60.00;;;;;;5084336;28;20044;-63
2022/02/11 10:06:01;;;;;;;7.63;1.60;;;8.00;59.40;;;;;;5057801;28;20070;-64
2022/02/11 10:08:29;;;;;;;11.50;2.15;;;8.10;59.40;;;;;;5077928;28;20094;-63
2022/02/11 10:10:58;;;;;;;11.32;2.00;;;8.20;57.30;;;;;;5083413;28;20113;-64
2022/02/11 10:13:35;;;;;;;8.85;2.13;;;8.20;56.60;;;;;;5085521;28;20044;-63
2022/02/11 10:16:10;;;;;;;9.55;1.98;;;8.30;55.70;;;;;;5077972;28;20522;-63
2022/02/11 10:18:42;;;;;;;8.98;1.98;;;8.30;55.90;;;;;;5085214;28;20407;-63
2022/02/11 10:21:12;;;;;;;10.63;2.10;;;8.30;55.30;;;;;;5083990;28;20436;-64
2022/02/11 10:23:42;;;;;;;9.45;1.58;;;8.30;54.10;;;;;;5077620;28;20054;-63
2022/02/11 10:26:22;;;;;;;11.10;2.05;;;8.30;54.20;;;;;;5094689;28;20395;-64
2022/02/11 10:28:49;;;;;;;8.93;1.73;;;8.30;53.40;;;;;;5062017;28;20032;-64
2022/02/11 10:31:23;;;;;;;8.40;1.70;;;8.30;54.60;;;;;;5056430;28;20064;-64
2022/02/11 10:33:57;;;;;;;7.95;1.90;;;8.20;53.20;;;;;;5079044;28;20071;-64
2022/02/11 10:36:29;;;;;;;9.27;1.88;;;8.20;53.30;;;;;;5067557;28;20356;-64
2022/02/11 10:39:06;;;;;;;7.55;1.90;;;8.30;53.40;;;;;;5069501;28;20432;-64
2022/02/11 10:41:53;;;;;;;8.93;1.75;;;8.40;54.20;;;;;;5073545;28;20052;-64
2022/02/11 10:44:25;;;;;;;6.95;1.60;;;8.50;53.20;;;;;;5070900;28;20471;-63
2022/02/11 10:46:53;;;;;;;8.20;1.55;;;8.70;53.20;;;;;;5051946;28;20033;-64
2022/02/11 10:49:49;;;;;;;10.57;1.90;;;8.80;52.80;;;;;;5055330;28;20033;-64
2022/02/11 10:52:20;;;;;;;8.95;1.40;;;8.90;53.20;;;;;;5049724;28;20044;-64
2022/02/11 10:54:50;;;;;;;9.20;1.85;;;9.00;52.90;;;;;;5058082;28;20035;-64
2022/02/11 10:57:18;;;;;;;7.32;1.48;;;9.10;52.00;;;;;;5058143;28;20037;-63
2022/02/11 11:01:28;;;;;;;11.52;2.20;;;9.10;52.50;;;;;;5068198;27;20365;-63
2022/02/11 11:05:33;;;;;;;8.93;1.30;;;9.40;51.60;;;;;;5066500;28;20365;-64
2022/02/11 11:08:00;;;;;;;8.07;1.77;;;9.40;50.60;;;;;;5053440;28;20072;-63
2022/02/11 11:10:26;;;;;;;10.10;1.77;;;9.40;50.70;;;;;;5047037;28;20537;-63
2022/02/11 11:12:56;;;;;;;7.57;1.67;;;9.30;49.60;;;;;;5046175;28;20026;-63
2022/02/11 11:15:24;;;;;;;7.45;1.70;;;9.30;50.60;;;;;;5047370;28;20384;-64
2022/02/11 11:19:33;;;;;;;12.38;1.90;;;9.20;51.10;;;;;;5085507;27;20368;-63
2022/02/11 11:22:14;;;;;;;13.05;1.65;;;9.10;50.80;;;;;;5075450;28;20036;-63
2022/02/11 11:24:51;;;;;;;7.00;1.65;;;9.00;51.80;;;;;;5071727;28;20126;-65
2022/02/11 11:27:54;;;;;;;8.90;2.00;;;8.90;52.00;;;;;;5066607;28;20344;-66
2022/02/11 11:30:32;;;;;;;12.93;1.65;;;8.80;51.20;;;;;;5078068;28;20144;-63
2022/02/11 11:33:04;;;;;;;11.65;1.92;;;8.70;51.40;;;;;;5076644;28;20421;-63
2022/02/11 11:35:40;;;;;;;7.40;1.65;;;8.70;51.50;;;;;;5075789;28;21430;-64
2022/02/11 11:40:22;;;;;;;4.97;1.40;;;9.00;51.40;;;;;;5142458;27;20780;-63
2022/02/11 11:45:27;;;;;;;6.43;1.48;;;9.30;49.60;;;;;;5077346;28;20447;-67
2022/02/11 11:51:03;;;;;;;9.93;1.67;;;9.90;50.00;;;;;;5094996;27;20688;-70
2022/02/11 11:53:29;;;;;;;8.68;1.63;;;10.10;48.50;;;;;;5075980;28;20553;-69
2022/02/11 11:56:35;;;;;;;10.00;1.70;;;10.10;48.80;;;;;;5101831;27;20437;-70
2022/02/11 12:02:35;;;;;;;7.35;1.77;;;10.50;46.60;;;;;;5083599;27;20913;-69
2022/02/11 12:05:03;;;;;;;7.00;1.75;;;10.50;47.80;;;;;;5103211;28;20039;-67
2022/02/11 12:07:34;;;;;;;11.60;1.67;;;10.50;47.10;;;;;;5082946;28;20028;-67
2022/02/11 12:10:04;;;;;;;9.63;2.22;;;10.40;47.50;;;;;;5092898;28;20055;-67
2022/02/11 12:12:31;;;;;;;9.18;1.98;;;10.40;48.10;;;;;;5079090;28;20429;-67
2022/02/11 12:15:02;;;;;;;10.32;1.77;;;10.40;48.00;;;;;;5076534;28;20035;-68
2022/02/11 12:17:29;;;;;;;12.02;1.67;;;10.40;48.40;;;;;;5080607;28;20498;-67
2022/02/11 12:19:56;;;;;;;8.30;1.85;;;10.40;47.30;;;;;;5081465;28;20153;-68
2022/02/11 12:22:26;;;;;;;9.52;2.15;;;10.30;47.80;;;;;;5073758;28;20665;-68
2022/02/11 12:27:42;;;;;;;9.35;1.70;;;10.30;49.60;;;;;;5078545;28;20458;-68
2022/02/11 12:30:15;;;;;;;6.05;1.40;;;10.90;47.10;;;;;;5077977;28;20021;-68
2022/02/11 12:32:46;;;;;;;7.13;1.77;;;11.00;47.00;;;;;;5066460;28;21412;-68
2022/02/11 12:35:15;;;;;;;7.80;1.95;;;10.80;46.40;;;;;;5075798;28;20541;-68
2022/02/11 12:37:43;;;;;;;7.72;1.50;;;10.50;45.90;;;;;;5067667;28;20360;-67
2022/02/11 12:40:15;;;;;;;7.03;1.50;;;10.20;47.20;;;;;;5061881;28;20029;-67
2022/02/11 12:42:46;;;;;;;6.20;1.27;;;10.00;46.80;;;;;;5067684;28;20101;-67
2022/02/11 12:45:26;;;;;;;6.97;1.40;;;9.80;47.50;;;;;;5071780;28;20325;-67
2022/02/11 12:47:53;;;;;;;5.00;1.10;;;9.60;47.10;;;;;;5064472;28;20025;-67
2022/02/11 12:50:34;;;;;;;6.55;1.50;;;9.60;46.90;;;;;;5065747;28;20032;-67
2022/02/11 12:53:05;;;;;;;5.38;1.42;;;9.50;47.20;;;;;;5067461;28;20186;-67
2022/02/11 12:55:36;;;;;;;5.25;1.10;;;9.50;46.90;;;;;;5066748;28;20031;-68
2022/02/11 12:58:04;;;;;;;3.83;1.10;;;9.40;46.70;;;;;;5064768;28;20103;-68
2022/02/11 13:00:34;;;;;;;9.23;1.33;;;9.30;46.30;;;;;;5068898;28;20051;-67
2022/02/11 13:03:02;;;;;;;4.88;1.30;;;9.30;46.50;;;;;;5066398;28;20036;-68
2022/02/11 13:05:51;;;;;;;8.55;1.58;;;9.60;46.60;;;;;;5073861;28;20104;-67
2022/02/11 13:08:28;;;;;;;6.95;1.55;;;10.10;45.40;;;;;;5077922;28;20059;-68
2022/02/11 13:11:03;;;;;;;7.10;1.77;;;12.20;43.30;;;;;;5064456;28;20456;-68
2022/02/11 13:13:30;;;;;;;5.78;1.63;;;14.20;39.20;;;;;;5054303;28;20037;-68
2022/02/11 13:15:57;;;;;;;10.32;1.90;;;15.30;36.30;;;;;;5062856;28;20043;-68
2022/02/11 13:18:26;;;;;;;5.10;1.55;;;15.10;36.60;;;;;;5066668;28;20098;-68
2022/02/11 13:20:55;;;;;;;6.82;1.45;;;15.00;36.70;;;;;;5067151;28;20029;-68
2022/02/11 13:23:24;;;;;;;5.85;1.92;;;14.70;38.00;;;;;;5051774;28;20021;-68
2022/02/11 13:25:51;;;;;;;5.07;1.42;;;14.20;37.90;;;;;;5056239;28;20051;-68
2022/02/11 13:28:20;;;;;;;8.90;1.40;;;13.50;39.00;;;;;;5052838;28;20771;-68
2022/02/11 13:30:53;;;;;;;8.30;1.75;;;12.90;39.40;;;;;;5052064;28;20514;-68
2022/02/11 13:33:36;;;;;;;7.22;1.60;;;12.40;39.40;;;;;;5051101;28;20473;-68
2022/02/11 13:36:04;;;;;;;7.07;1.40;;;11.90;40.50;;;;;;5051165;28;20550;-68
2022/02/11 13:38:32;;;;;;;6.20;1.45;;;11.80;41.10;;;;;;5054295;28;20086;-68
2022/02/11 13:41:01;;;;;;;4.95;1.23;;;11.70;41.00;;;;;;5062456;28;20024;-68
2022/02/11 13:43:44;;;;;;;6.10;1.23;;;11.40;41.20;;;;;;5066455;28;20021;-68
2022/02/11 13:46:10;;;;;;;5.57;1.55;;;11.20;42.10;;;;;;5065358;28;20070;-68
2022/02/11 13:49:03;;;;;;;9.05;1.60;;;11.00;42.40;;;;;;5065565;28;20039;-68
2022/02/11 13:51:32;;;;;;;6.22;1.50;;;10.90;43.40;;;;;;5068522;28;20068;-68
2022/02/11 13:54:12;;;;;;;4.85;1.30;;;10.70;43.80;;;;;;5060915;28;20044;-68
2022/02/11 13:56:45;;;;;;;5.38;1.27;;;10.80;44.80;;;;;;5085307;28;20549;-68
2022/02/11 13:59:29;;;;;;;10.48;2.00;;;11.10;44.50;;;;;;5065833;28;20035;-68
2022/02/11 14:02:09;;;;;;;5.07;1.20;;;11.10;44.70;;;;;;5058823;28;20083;-68
2022/02/11 14:04:35;;;;;;;6.40;1.27;;;10.90;45.40;;;;;;5075619;28;20120;-68
2022/02/11 14:07:02;;;;;;;9.90;1.58;;;10.70;45.80;;;;;;5074500;28;20036;-68
2022/02/11 14:09:41;;;;;;;9.20;1.85;;;10.70;46.30;;;;;;5072299;28;20029;-68
2022/02/11 14:12:27;;;;;;;7.97;1.20;;;10.70;46.20;;;;;;5073944;28;20040;-68
2022/02/11 14:14:57;;;;;;;10.82;1.75;;;10.70;46.50;;;;;;5064896;28;20056;-68
2022/02/11 14:17:23;;;;;;;4.25;1.13;;;10.50;46.40;;;;;;5076626;28;20115;-68
2022/02/11 14:19:49;;;;;;;7.85;1.88;;;10.80;47.00;;;;;;5060781;28;20039;-68
2022/02/11 14:22:16;;;;;;;5.13;1.65;;;11.30;45.90;;;;;;5061301;28;20488;-68
2022/02/11 14:24:42;;;;;;;5.22;1.50;;;11.60;44.80;;;;;;5064928;28;20881;-68
2022/02/11 14:27:11;;;;;;;4.30;1.27;;;11.70;43.50;;;;;;5064041;28;20115;-68
2022/02/11 14:29:37;;;;;;;9.88;1.80;;;11.60;43.90;;;;;;5065131;28;20028;-68
2022/02/11 14:32:26;;;;;;;8.00;1.50;;;11.50;43.50;;;;;;5059615;28;20157;-68
2022/02/11 14:35:07;;;;;;;4.93;1.30;;;11.20;43.50;;;;;;5067904;28;20672;-68
2022/02/11 14:37:33;;;;;;;3.67;1.05;;;11.00;44.80;;;;;;5065271;28;20096;-68
2022/02/11 14:39:59;;;;;;;7.97;1.63;;;10.80;45.50;;;;;;5069712;28;20120;-68
2022/02/11 14:42:24;;;;;;;6.45;1.40;;;10.70;45.00;;;;;;5059311;28;20052;-68
2022/02/11 14:44:52;;;;;;;5.82;1.77;;;10.60;44.70;;;;;;5067827;28;20112;-68
2022/02/11 14:47:18;;;;;;;7.55;1.33;;;10.40;44.80;;;;;;5056712;28;20737;-68
2022/02/11 14:49:43;;;;;;;7.60;1.33;;;10.40;44.80;;;;;;5057666;28;20029;-68
2022/02/11 14:52:12;;;;;;;5.10;1.25;;;10.30;45.10;;;;;;5069284;28;20139;-68
2022/02/11 14:54:38;;;;;;;5.63;1.13;;;10.30;44.90;;;;;;5059340;28;20359;-68
2022/02/11 14:57:04;;;;;;;5.72;1.42;;;10.20;45.20;;;;;;5077178;28;20036;-67
2022/02/11 14:59:30;;;;;;;7.95;1.75;;;10.20;45.10;;;;;;5054344;28;20131;-63
2022/02/11 15:01:56;;;;;;;4.03;1.50;;;10.20;45.10;;;;;;5061862;28;20128;-64
2022/02/11 15:04:22;;;;;;;5.07;1.23;;;10.20;45.40;;;;;;5052638;28;20040;-64
2022/02/11 15:06:51;;;;;;;6.90;1.02;;;10.10;45.40;;;;;;5053209;28;20893;-63
2022/02/11 15:09:19;;;;;;;7.80;2.15;;;10.00;44.80;;;;;;5071427;28;20626;-64
2022/02/11 15:11:45;;;;;;;8.38;1.40;;;10.00;44.60;;;;;;5054787;28;20040;-63
2022/02/11 15:14:11;;;;;;;9.75;1.88;;;9.90;45.10;;;;;;5058836;28;20045;-64
2022/02/11 15:16:37;;;;;;;4.55;2.08;;;9.90;45.00;;;;;;5059251;28;20499;-64
2022/02/11 15:19:06;;;;;;;13.63;3.58;;;9.80;45.70;;;;;;5060932;28;20033;-64
2022/02/11 15:21:33;;;;;;;9.05;2.53;;;9.80;45.60;;;;;;5068349;28;20032;-64
2022/02/11 15:23:58;;;;;;;10.20;2.83;;;9.80;45.60;;;;;;5061723;28;20379;-64
2022/02/11 15:26:24;;;;;;;24.65;4.90;;;9.80;46.20;;;;;;5065781;28;20044;-64
2022/02/11 15:28:50;;;;;;;12.02;2.20;;;9.90;46.60;;;;;;5058771;28;20689;-64
2022/02/11 15:31:15;;;;;;;20.35;4.32;;;10.40;45.70;;;;;;5061618;28;20033;-68
2022/02/11 15:33:42;;;;;;;14.68;2.67;;;10.50;44.90;;;;;;5060625;28;20565;-68
2022/02/11 15:36:10;;;;;;;11.00;2.58;;;10.50;45.20;;;;;;5064608;28;20040;-68
2022/02/11 15:38:35;;;;;;;6.82;1.42;;;10.40;45.50;;;;;;5065496;28;20029;-68
2022/02/11 15:41:01;;;;;;;11.57;2.90;;;10.20;45.90;;;;;;5069262;28;20382;-68
2022/02/11 15:43:28;;;;;;;9.88;1.90;;;10.20;46.20;;;;;;5079583;28;20098;-68
2022/02/11 15:45:55;;;;;;;13.00;3.90;;;10.00;47.30;;;;;;5076764;28;20415;-68
2022/02/11 15:48:21;;;;;;;10.27;3.00;;;10.00;47.00;;;;;;5070179;28;20033;-68
2022/02/11 15:50:47;;;;;;;9.98;2.85;;;9.90;47.20;;;;;;5071676;28;20047;-68
2022/02/11 15:53:15;;;;;;;7.10;1.80;;;9.80;47.10;;;;;;5071214;28;20039;-68
2022/02/11 15:55:41;;;;;;;7.80;1.40;;;9.80;47.50;;;;;;5070121;28;20028;-68
2022/02/11 15:58:07;;;;;;;8.20;1.83;;;9.70;47.70;;;;;;5066377;28;20090;-68
2022/02/11 16:00:34;;;;;;;8.05;1.55;;;9.70;47.90;;;;;;5067337;28;20115;-67
2022/02/11 16:03:04;;;;;;;6.35;1.35;;;9.60;47.90;;;;;;5065212;28;20093;-67
2022/02/11 16:05:30;;;;;;;6.32;1.30;;;9.60;48.30;;;;;;5065730;28;20021;-68
2022/02/11 16:07:56;;;;;;;9.10;1.65;;;9.60;48.60;;;;;;5070023;28;20029;-68
2022/02/11 16:10:23;;;;;;;7.40;1.27;;;9.60;49.10;;;;;;5066702;28;20699;-68
2022/02/11 16:12:49;;;;;;;10.35;1.33;;;9.60;49.60;;;;;;5062117;28;20430;-68
2022/02/11 16:15:15;;;;;;;6.93;1.25;;;9.50;50.10;;;;;;5059328;28;20043;-68
2022/02/11 16:17:59;;;;;;;9.65;1.60;;;9.50;50.00;;;;;;5067957;28;20033;-68
2022/02/11 16:20:46;;;;;;;6.75;1.40;;;9.50;49.80;;;;;;5063935;28;20041;-68
2022/02/11 16:23:15;;;;;;;8.10;1.88;;;9.40;49.90;;;;;;5060946;28;20055;-68
2022/02/11 16:25:41;;;;;;;9.75;1.92;;;9.40;50.40;;;;;;5067819;28;20024;-68
2022/02/11 16:28:11;;;;;;;7.53;1.30;;;9.40;50.50;;;;;;5064877;28;20048;-68
2022/02/11 16:30:38;;;;;;;7.50;1.40;;;9.40;50.60;;;;;;5065278;28;20021;-68
2022/02/11 16:33:05;;;;;;;6.38;1.30;;;9.40;50.90;;;;;;5065723;28;20059;-68
2022/02/11 16:35:37;;;;;;;3.10;1.17;;;9.30;51.30;;;;;;5072793;28;20028;-68
2022/02/11 16:38:05;;;;;;;5.40;1.88;;;9.30;51.60;;;;;;5064901;28;20032;-68
2022/02/11 16:40:31;;;;;;;8.07;1.80;;;9.20;51.90;;;;;;5057905;28;20028;-68
2022/02/11 16:42:57;;;;;;;6.97;1.65;;;9.20;52.80;;;;;;5062513;28;20144;-68
2022/02/11 16:45:23;;;;;;;8.75;1.38;;;9.10;53.00;;;;;;5053013;28;20096;-68
2022/02/11 16:47:49;;;;;;;7.45;1.45;;;9.10;53.00;;;;;;5058027;28;20044;-68
2022/02/11 16:50:14;;;;;;;11.55;1.77;;;9.10;53.60;;;;;;5060875;28;20040;-68
2022/02/11 16:52:40;;;;;;;9.68;2.55;;;9.00;54.00;;;;;;5063207;28;20492;-68
2022/02/11 16:55:08;;;;;;;6.85;1.35;;;9.00;54.20;;;;;;5059278;28;20020;-68
2022/02/11 16:57:35;;;;;;;5.72;1.50;;;8.90;54.10;;;;;;5071604;28;20036;-68
2022/02/11 17:00:00;;;;;;;6.65;1.42;;;8.90;54.40;;;;;;5066193;28;20025;-68